ホノルル の空港の天気 - METARとTAF

ホノルル国際空港 ( PHNL / HNL ) - アメリカ ハワイ州ホノルル
飛行場実況気象(Metar)
観測時間09/22 13:53 HST (09/22 23:53 UTC)
風向・風速東北東 8m/s 瞬間風速12m/s
視程10km以上
天気現象
少しの雲 雲底高度 760m
全天の4割程度の雲 雲底高度 1520m
気温30.6℃
湿度40%
気圧1016.1hPa
METARPHNL 222353Z 06016G24KT 10SM FEW025 SCT050 31/16 A3001 RMK AO2 SLP161 T03060156 10311 20267 58020
過去の天気等 Google飛行場航空写真 Wunderground天気予報

過去48時間のMETAR

飛行場予報(TAF)
発表時間: 9/22 13:42 HST (9/22 23:42 UTC)
予報対象時間: 22日14時 HST ~ 23日20時 HST
風向・風速東北東 8m/s 瞬間風速 12m/s
視程10km以上
少しの雲 雲底高度 760m
全天の4割程度の雲 雲底高度 1370m
22日19時 HST から
風向・風速北東 5m/s
視程10km以上
少しの雲 雲底高度 760m
全天の4割程度の雲 雲底高度 1370m
23日10時 HST から
風向・風速東北東 8m/s 瞬間風速 12m/s
視程10km以上
少しの雲 雲底高度 760m
全天の4割程度の雲 雲底高度 1370m
PHNL 222342Z 2300/2406 06015G24KT P6SM FEW025 SCT045
FM230500 05010KT P6SM FEW025 SCT045
FM232000 06015G24KT P6SM FEW025 SCT045